sensor_id;sensor_type;location;lat;lon;timestamp;P1;durP1;ratioP1;P2;durP2;ratioP2
79130;SDS011;72396;45.194;9.142;2023-10-31T00:01:49;7.40;;;4.78;;
79130;SDS011;72396;45.194;9.142;2023-10-31T00:04:15;8.70;;;4.53;;
79130;SDS011;72396;45.194;9.142;2023-10-31T00:06:41;8.82;;;4.18;;
79130;SDS011;72396;45.194;9.142;2023-10-31T00:09:06;7.75;;;5.07;;
79130;SDS011;72396;45.194;9.142;2023-10-31T00:11:32;6.88;;;4.40;;
79130;SDS011;72396;45.194;9.142;2023-10-31T00:13:57;7.78;;;4.63;;
79130;SDS011;72396;45.194;9.142;2023-10-31T00:16:22;7.68;;;4.55;;
79130;SDS011;72396;45.194;9.142;2023-10-31T00:18:48;8.25;;;4.78;;
79130;SDS011;72396;45.194;9.142;2023-10-31T00:21:13;8.40;;;4.57;;
79130;SDS011;72396;45.194;9.142;2023-10-31T00:23:46;6.70;;;4.38;;
79130;SDS011;72396;45.194;9.142;2023-10-31T00:26:12;7.60;;;4.35;;
79130;SDS011;72396;45.194;9.142;2023-10-31T00:28:37;7.57;;;4.55;;
79130;SDS011;72396;45.194;9.142;2023-10-31T00:31:03;8.55;;;4.68;;
79130;SDS011;72396;45.194;9.142;2023-10-31T00:33:29;8.25;;;4.65;;
79130;SDS011;72396;45.194;9.142;2023-10-31T00:35:55;6.60;;;3.70;;
79130;SDS011;72396;45.194;9.142;2023-10-31T00:38:20;6.78;;;4.70;;
79130;SDS011;72396;45.194;9.142;2023-10-31T00:40:45;8.82;;;4.75;;
79130;SDS011;72396;45.194;9.142;2023-10-31T00:43:11;6.97;;;4.35;;
79130;SDS011;72396;45.194;9.142;2023-10-31T00:45:36;6.13;;;4.05;;
79130;SDS011;72396;45.194;9.142;2023-10-31T00:48:02;6.97;;;4.53;;
79130;SDS011;72396;45.194;9.142;2023-10-31T00:50:27;7.03;;;3.97;;
79130;SDS011;72396;45.194;9.142;2023-10-31T00:52:53;6.72;;;3.95;;
79130;SDS011;72396;45.194;9.142;2023-10-31T00:55:19;6.75;;;4.63;;
79130;SDS011;72396;45.194;9.142;2023-10-31T00:57:44;6.35;;;3.53;;
79130;SDS011;72396;45.194;9.142;2023-10-31T01:00:09;6.35;;;3.53;;
79130;SDS011;72396;45.194;9.142;2023-10-31T01:02:35;5.60;;;3.60;;
79130;SDS011;72396;45.194;9.142;2023-10-31T01:05:00;6.28;;;3.80;;
79130;SDS011;72396;45.194;9.142;2023-10-31T01:07:26;7.35;;;4.13;;
79130;SDS011;72396;45.194;9.142;2023-10-31T01:09:51;6.30;;;3.70;;
79130;SDS011;72396;45.194;9.142;2023-10-31T01:12:17;6.22;;;4.20;;
79130;SDS011;72396;45.194;9.142;2023-10-31T01:14:42;6.60;;;3.85;;
79130;SDS011;72396;45.194;9.142;2023-10-31T01:17:07;6.30;;;3.78;;
79130;SDS011;72396;45.194;9.142;2023-10-31T01:19:33;7.30;;;4.13;;
79130;SDS011;72396;45.194;9.142;2023-10-31T01:21:58;7.18;;;3.97;;
79130;SDS011;72396;45.194;9.142;2023-10-31T01:24:23;5.40;;;4.03;;
79130;SDS011;72396;45.194;9.142;2023-10-31T01:26:49;7.07;;;4.07;;
79130;SDS011;72396;45.194;9.142;2023-10-31T01:29:14;6.13;;;3.80;;
79130;SDS011;72396;45.194;9.142;2023-10-31T01:31:42;6.15;;;3.65;;
79130;SDS011;72396;45.194;9.142;2023-10-31T01:34:08;5.85;;;3.72;;
79130;SDS011;72396;45.194;9.142;2023-10-31T01:36:33;6.28;;;3.38;;
79130;SDS011;72396;45.194;9.142;2023-10-31T01:38:59;5.30;;;3.28;;
79130;SDS011;72396;45.194;9.142;2023-10-31T01:41:24;6.20;;;3.60;;
79130;SDS011;72396;45.194;9.142;2023-10-31T01:43:50;6.03;;;3.03;;
79130;SDS011;72396;45.194;9.142;2023-10-31T01:46:15;5.78;;;3.88;;
79130;SDS011;72396;45.194;9.142;2023-10-31T01:48:41;6.53;;;3.67;;
79130;SDS011;72396;45.194;9.142;2023-10-31T01:51:07;5.28;;;3.33;;
79130;SDS011;72396;45.194;9.142;2023-10-31T01:53:34;6.05;;;3.83;;
79130;SDS011;72396;45.194;9.142;2023-10-31T01:56:01;5.07;;;3.45;;
79130;SDS011;72396;45.194;9.142;2023-10-31T01:58:30;5.10;;;3.55;;
79130;SDS011;72396;45.194;9.142;2023-10-31T02:00:58;4.95;;;3.53;;
79130;SDS011;72396;45.194;9.142;2023-10-31T02:03:25;5.15;;;3.40;;
79130;SDS011;72396;45.194;9.142;2023-10-31T02:05:53;5.78;;;3.30;;
79130;SDS011;72396;45.194;9.142;2023-10-31T02:08:19;4.70;;;3.30;;
79130;SDS011;72396;45.194;9.142;2023-10-31T02:10:44;5.72;;;3.45;;
79130;SDS011;72396;45.194;9.142;2023-10-31T02:13:13;6.32;;;3.40;;
79130;SDS011;72396;45.194;9.142;2023-10-31T02:15:40;5.65;;;3.22;;
79130;SDS011;72396;45.194;9.142;2023-10-31T02:18:05;5.28;;;3.33;;
79130;SDS011;72396;45.194;9.142;2023-10-31T02:20:32;5.22;;;3.03;;
79130;SDS011;72396;45.194;9.142;2023-10-31T02:22:57;5.57;;;3.20;;
79130;SDS011;72396;45.194;9.142;2023-10-31T02:25:23;5.30;;;3.38;;
79130;SDS011;72396;45.194;9.142;2023-10-31T02:27:48;4.63;;;3.17;;
79130;SDS011;72396;45.194;9.142;2023-10-31T02:30:13;5.72;;;3.13;;
79130;SDS011;72396;45.194;9.142;2023-10-31T02:32:39;5.38;;;3.40;;
79130;SDS011;72396;45.194;9.142;2023-10-31T02:35:06;4.95;;;3.22;;
79130;SDS011;72396;45.194;9.142;2023-10-31T02:37:32;5.85;;;3.38;;
79130;SDS011;72396;45.194;9.142;2023-10-31T02:39:58;5.57;;;3.17;;
79130;SDS011;72396;45.194;9.142;2023-10-31T02:42:24;4.90;;;3.30;;
79130;SDS011;72396;45.194;9.142;2023-10-31T02:44:50;5.72;;;3.22;;
79130;SDS011;72396;45.194;9.142;2023-10-31T02:47:16;5.25;;;3.28;;
79130;SDS011;72396;45.194;9.142;2023-10-31T02:49:41;4.40;;;3.20;;
79130;SDS011;72396;45.194;9.142;2023-10-31T02:52:07;5.05;;;3.00;;
79130;SDS011;72396;45.194;9.142;2023-10-31T02:54:32;5.47;;;3.20;;
79130;SDS011;72396;45.194;9.142;2023-10-31T02:56:58;5.18;;;3.35;;
79130;SDS011;72396;45.194;9.142;2023-10-31T02:59:23;5.25;;;3.30;;
79130;SDS011;72396;45.194;9.142;2023-10-31T03:01:48;5.22;;;3.10;;
79130;SDS011;72396;45.194;9.142;2023-10-31T03:04:14;4.90;;;3.30;;
79130;SDS011;72396;45.194;9.142;2023-10-31T03:06:39;4.63;;;2.95;;
79130;SDS011;72396;45.194;9.142;2023-10-31T03:09:05;5.10;;;3.38;;
79130;SDS011;72396;45.194;9.142;2023-10-31T03:11:31;4.50;;;2.95;;
79130;SDS011;72396;45.194;9.142;2023-10-31T03:13:57;5.20;;;3.00;;
79130;SDS011;72396;45.194;9.142;2023-10-31T03:16:23;5.07;;;3.05;;
79130;SDS011;72396;45.194;9.142;2023-10-31T03:18:49;4.88;;;3.55;;
79130;SDS011;72396;45.194;9.142;2023-10-31T03:21:14;4.38;;;2.83;;
79130;SDS011;72396;45.194;9.142;2023-10-31T03:23:40;5.88;;;3.35;;
79130;SDS011;72396;45.194;9.142;2023-10-31T03:26:06;5.05;;;2.90;;
79130;SDS011;72396;45.194;9.142;2023-10-31T03:28:32;4.60;;;2.92;;
79130;SDS011;72396;45.194;9.142;2023-10-31T03:30:57;4.50;;;3.10;;
79130;SDS011;72396;45.194;9.142;2023-10-31T03:33:22;4.45;;;2.97;;
79130;SDS011;72396;45.194;9.142;2023-10-31T03:35:48;4.90;;;3.08;;
79130;SDS011;72396;45.194;9.142;2023-10-31T03:38:14;5.22;;;3.15;;
79130;SDS011;72396;45.194;9.142;2023-10-31T03:40:39;4.30;;;2.95;;
79130;SDS011;72396;45.194;9.142;2023-10-31T03:43:05;4.93;;;3.22;;
79130;SDS011;72396;45.194;9.142;2023-10-31T03:45:30;4.25;;;2.95;;
79130;SDS011;72396;45.194;9.142;2023-10-31T03:47:56;4.10;;;2.83;;
79130;SDS011;72396;45.194;9.142;2023-10-31T03:50:21;4.85;;;3.08;;
79130;SDS011;72396;45.194;9.142;2023-10-31T03:52:46;3.90;;;2.55;;
79130;SDS011;72396;45.194;9.142;2023-10-31T03:55:12;4.45;;;3.03;;
79130;SDS011;72396;45.194;9.142;2023-10-31T03:57:37;5.78;;;3.10;;
79130;SDS011;72396;45.194;9.142;2023-10-31T04:00:03;4.40;;;3.00;;
79130;SDS011;72396;45.194;9.142;2023-10-31T04:02:32;4.30;;;2.88;;
79130;SDS011;72396;45.194;9.142;2023-10-31T04:04:57;4.22;;;2.80;;
79130;SDS011;72396;45.194;9.142;2023-10-31T04:07:22;4.70;;;2.80;;
79130;SDS011;72396;45.194;9.142;2023-10-31T04:09:48;6.82;;;3.05;;
79130;SDS011;72396;45.194;9.142;2023-10-31T04:12:13;5.07;;;2.97;;
79130;SDS011;72396;45.194;9.142;2023-10-31T04:14:38;4.60;;;2.95;;
79130;SDS011;72396;45.194;9.142;2023-10-31T04:17:04;4.60;;;2.90;;
79130;SDS011;72396;45.194;9.142;2023-10-31T04:19:29;4.57;;;2.90;;
79130;SDS011;72396;45.194;9.142;2023-10-31T04:21:55;4.82;;;3.15;;
79130;SDS011;72396;45.194;9.142;2023-10-31T04:24:20;4.70;;;2.88;;
79130;SDS011;72396;45.194;9.142;2023-10-31T04:26:45;4.53;;;3.13;;
79130;SDS011;72396;45.194;9.142;2023-10-31T04:29:11;4.72;;;3.05;;
79130;SDS011;72396;45.194;9.142;2023-10-31T04:31:36;4.22;;;2.72;;
79130;SDS011;72396;45.194;9.142;2023-10-31T04:34:01;4.95;;;3.17;;
79130;SDS011;72396;45.194;9.142;2023-10-31T04:36:27;4.80;;;3.10;;
79130;SDS011;72396;45.194;9.142;2023-10-31T04:38:53;5.07;;;3.30;;
79130;SDS011;72396;45.194;9.142;2023-10-31T04:41:19;5.03;;;3.00;;
79130;SDS011;72396;45.194;9.142;2023-10-31T04:43:44;5.10;;;2.80;;
79130;SDS011;72396;45.194;9.142;2023-10-31T04:46:10;4.55;;;2.90;;
79130;SDS011;72396;45.194;9.142;2023-10-31T04:48:36;5.05;;;2.88;;
79130;SDS011;72396;45.194;9.142;2023-10-31T04:51:01;5.43;;;2.72;;
79130;SDS011;72396;45.194;9.142;2023-10-31T04:53:27;5.05;;;2.42;;
79130;SDS011;72396;45.194;9.142;2023-10-31T04:55:52;5.05;;;2.67;;
79130;SDS011;72396;45.194;9.142;2023-10-31T04:58:18;4.85;;;2.85;;
79130;SDS011;72396;45.194;9.142;2023-10-31T05:00:43;4.28;;;2.80;;
79130;SDS011;72396;45.194;9.142;2023-10-31T05:03:09;5.10;;;2.90;;
79130;SDS011;72396;45.194;9.142;2023-10-31T05:05:34;4.97;;;2.88;;
79130;SDS011;72396;45.194;9.142;2023-10-31T05:08:00;5.32;;;2.70;;
79130;SDS011;72396;45.194;9.142;2023-10-31T05:10:25;4.13;;;2.70;;
79130;SDS011;72396;45.194;9.142;2023-10-31T05:12:51;4.10;;;2.70;;
79130;SDS011;72396;45.194;9.142;2023-10-31T05:15:17;4.72;;;2.70;;
79130;SDS011;72396;45.194;9.142;2023-10-31T05:17:42;4.97;;;2.55;;
79130;SDS011;72396;45.194;9.142;2023-10-31T05:20:07;4.07;;;2.63;;
79130;SDS011;72396;45.194;9.142;2023-10-31T05:22:36;4.25;;;2.67;;
79130;SDS011;72396;45.194;9.142;2023-10-31T05:25:02;4.32;;;2.20;;
79130;SDS011;72396;45.194;9.142;2023-10-31T05:27:28;3.35;;;2.15;;
79130;SDS011;72396;45.194;9.142;2023-10-31T05:29:54;5.03;;;3.33;;
79130;SDS011;72396;45.194;9.142;2023-10-31T05:32:19;3.55;;;2.42;;
79130;SDS011;72396;45.194;9.142;2023-10-31T05:34:44;4.38;;;2.63;;
79130;SDS011;72396;45.194;9.142;2023-10-31T05:37:10;4.10;;;2.47;;
79130;SDS011;72396;45.194;9.142;2023-10-31T05:39:35;4.07;;;2.28;;
79130;SDS011;72396;45.194;9.142;2023-10-31T05:42:01;6.63;;;2.38;;
79130;SDS011;72396;45.194;9.142;2023-10-31T05:44:27;4.28;;;2.30;;
79130;SDS011;72396;45.194;9.142;2023-10-31T05:46:52;3.63;;;2.03;;
79130;SDS011;72396;45.194;9.142;2023-10-31T05:49:19;5.25;;;2.15;;
79130;SDS011;72396;45.194;9.142;2023-10-31T05:51:44;3.90;;;2.30;;
79130;SDS011;72396;45.194;9.142;2023-10-31T05:54:14;3.63;;;2.30;;
79130;SDS011;72396;45.194;9.142;2023-10-31T05:56:39;3.55;;;2.15;;
79130;SDS011;72396;45.194;9.142;2023-10-31T05:59:05;3.00;;;1.55;;
79130;SDS011;72396;45.194;9.142;2023-10-31T06:01:30;3.20;;;1.50;;
79130;SDS011;72396;45.194;9.142;2023-10-31T06:03:55;3.33;;;1.50;;
79130;SDS011;72396;45.194;9.142;2023-10-31T06:06:21;3.08;;;1.67;;
79130;SDS011;72396;45.194;9.142;2023-10-31T06:08:46;3.00;;;1.90;;
79130;SDS011;72396;45.194;9.142;2023-10-31T06:11:11;3.85;;;1.85;;
79130;SDS011;72396;45.194;9.142;2023-10-31T06:13:37;3.55;;;1.50;;
79130;SDS011;72396;45.194;9.142;2023-10-31T06:16:03;3.35;;;1.30;;
79130;SDS011;72396;45.194;9.142;2023-10-31T06:18:28;4.15;;;1.40;;
79130;SDS011;72396;45.194;9.142;2023-10-31T06:20:54;3.47;;;1.50;;
79130;SDS011;72396;45.194;9.142;2023-10-31T06:23:19;3.22;;;1.52;;
79130;SDS011;72396;45.194;9.142;2023-10-31T06:25:44;2.63;;;1.30;;
79130;SDS011;72396;45.194;9.142;2023-10-31T06:28:10;2.83;;;1.58;;
79130;SDS011;72396;45.194;9.142;2023-10-31T06:30:35;2.80;;;1.60;;
79130;SDS011;72396;45.194;9.142;2023-10-31T06:33:01;3.38;;;1.60;;
79130;SDS011;72396;45.194;9.142;2023-10-31T06:35:26;6.20;;;1.90;;
79130;SDS011;72396;45.194;9.142;2023-10-31T06:37:53;3.55;;;1.30;;
79130;SDS011;72396;45.194;9.142;2023-10-31T06:40:20;3.75;;;1.67;;
79130;SDS011;72396;45.194;9.142;2023-10-31T06:42:45;3.47;;;1.60;;
79130;SDS011;72396;45.194;9.142;2023-10-31T06:45:10;2.92;;;1.40;;
79130;SDS011;72396;45.194;9.142;2023-10-31T06:47:36;3.20;;;1.80;;
79130;SDS011;72396;45.194;9.142;2023-10-31T06:50:01;5.45;;;1.45;;
79130;SDS011;72396;45.194;9.142;2023-10-31T06:52:26;3.10;;;1.60;;
79130;SDS011;72396;45.194;9.142;2023-10-31T06:54:52;2.70;;;1.52;;
79130;SDS011;72396;45.194;9.142;2023-10-31T06:57:17;3.35;;;1.50;;
79130;SDS011;72396;45.194;9.142;2023-10-31T06:59:42;3.25;;;1.33;;
79130;SDS011;72396;45.194;9.142;2023-10-31T07:02:08;3.33;;;1.40;;
79130;SDS011;72396;45.194;9.142;2023-10-31T07:04:34;2.83;;;1.67;;
79130;SDS011;72396;45.194;9.142;2023-10-31T07:06:59;3.45;;;1.40;;
79130;SDS011;72396;45.194;9.142;2023-10-31T07:09:25;2.78;;;1.40;;
79130;SDS011;72396;45.194;9.142;2023-10-31T07:11:51;2.53;;;1.40;;
79130;SDS011;72396;45.194;9.142;2023-10-31T07:14:16;2.28;;;1.10;;
79130;SDS011;72396;45.194;9.142;2023-10-31T07:16:42;3.55;;;1.23;;
79130;SDS011;72396;45.194;9.142;2023-10-31T07:19:09;3.42;;;1.45;;
79130;SDS011;72396;45.194;9.142;2023-10-31T07:21:36;3.13;;;1.48;;
79130;SDS011;72396;45.194;9.142;2023-10-31T07:24:01;2.58;;;1.30;;
79130;SDS011;72396;45.194;9.142;2023-10-31T07:26:27;3.33;;;1.30;;
79130;SDS011;72396;45.194;9.142;2023-10-31T07:28:52;3.65;;;1.67;;
79130;SDS011;72396;45.194;9.142;2023-10-31T07:31:18;3.35;;;0.90;;
79130;SDS011;72396;45.194;9.142;2023-10-31T07:33:44;2.88;;;1.10;;
79130;SDS011;72396;45.194;9.142;2023-10-31T07:36:10;3.47;;;1.20;;
79130;SDS011;72396;45.194;9.142;2023-10-31T07:38:36;2.60;;;1.20;;
79130;SDS011;72396;45.194;9.142;2023-10-31T07:41:01;3.80;;;1.30;;
79130;SDS011;72396;45.194;9.142;2023-10-31T07:43:26;2.35;;;1.30;;
79130;SDS011;72396;45.194;9.142;2023-10-31T07:45:52;5.40;;;1.13;;
79130;SDS011;72396;45.194;9.142;2023-10-31T07:48:17;2.28;;;1.05;;
79130;SDS011;72396;45.194;9.142;2023-10-31T07:50:42;2.95;;;1.10;;
79130;SDS011;72396;45.194;9.142;2023-10-31T07:53:08;3.00;;;1.40;;
79130;SDS011;72396;45.194;9.142;2023-10-31T07:55:33;4.72;;;1.30;;
79130;SDS011;72396;45.194;9.142;2023-10-31T07:57:58;3.38;;;1.08;;
79130;SDS011;72396;45.194;9.142;2023-10-31T08:00:24;4.57;;;1.30;;
79130;SDS011;72396;45.194;9.142;2023-10-31T08:02:50;2.95;;;1.20;;
79130;SDS011;72396;45.194;9.142;2023-10-31T08:05:15;3.95;;;1.10;;
79130;SDS011;72396;45.194;9.142;2023-10-31T08:07:40;1.88;;;1.10;;
79130;SDS011;72396;45.194;9.142;2023-10-31T08:10:06;3.10;;;1.10;;
79130;SDS011;72396;45.194;9.142;2023-10-31T08:12:32;4.78;;;1.40;;
79130;SDS011;72396;45.194;9.142;2023-10-31T08:14:57;2.47;;;1.10;;
79130;SDS011;72396;45.194;9.142;2023-10-31T08:17:23;2.97;;;1.15;;
79130;SDS011;72396;45.194;9.142;2023-10-31T08:19:49;3.30;;;1.20;;
79130;SDS011;72396;45.194;9.142;2023-10-31T08:22:14;3.35;;;1.20;;
79130;SDS011;72396;45.194;9.142;2023-10-31T08:24:40;3.55;;;1.10;;
79130;SDS011;72396;45.194;9.142;2023-10-31T08:27:05;3.40;;;1.10;;
79130;SDS011;72396;45.194;9.142;2023-10-31T08:29:32;3.60;;;1.10;;
79130;SDS011;72396;45.194;9.142;2023-10-31T08:31:57;4.15;;;1.15;;
79130;SDS011;72396;45.194;9.142;2023-10-31T08:34:23;3.45;;;1.02;;
79130;SDS011;72396;45.194;9.142;2023-10-31T08:36:48;2.08;;;1.10;;
79130;SDS011;72396;45.194;9.142;2023-10-31T08:39:13;2.15;;;0.95;;
79130;SDS011;72396;45.194;9.142;2023-10-31T08:41:52;3.75;;;1.27;;
79130;SDS011;72396;45.194;9.142;2023-10-31T08:44:18;3.05;;;0.95;;
79130;SDS011;72396;45.194;9.142;2023-10-31T08:46:43;2.47;;;1.05;;
79130;SDS011;72396;45.194;9.142;2023-10-31T08:49:08;2.38;;;1.00;;
79130;SDS011;72396;45.194;9.142;2023-10-31T08:51:34;2.25;;;1.17;;
79130;SDS011;72396;45.194;9.142;2023-10-31T08:53:59;2.60;;;0.90;;
79130;SDS011;72396;45.194;9.142;2023-10-31T08:56:24;2.08;;;1.10;;
79130;SDS011;72396;45.194;9.142;2023-10-31T08:58:52;2.10;;;1.10;;
79130;SDS011;72396;45.194;9.142;2023-10-31T09:01:17;3.45;;;1.00;;
79130;SDS011;72396;45.194;9.142;2023-10-31T09:03:43;2.08;;;0.90;;
79130;SDS011;72396;45.194;9.142;2023-10-31T09:06:09;2.92;;;1.05;;
79130;SDS011;72396;45.194;9.142;2023-10-31T09:08:35;2.53;;;1.05;;
79130;SDS011;72396;45.194;9.142;2023-10-31T09:11:01;2.85;;;0.98;;
79130;SDS011;72396;45.194;9.142;2023-10-31T09:13:28;2.42;;;1.08;;
79130;SDS011;72396;45.194;9.142;2023-10-31T09:15:54;2.58;;;1.00;;
79130;SDS011;72396;45.194;9.142;2023-10-31T09:18:19;3.58;;;1.10;;
79130;SDS011;72396;45.194;9.142;2023-10-31T09:20:45;2.20;;;1.00;;
79130;SDS011;72396;45.194;9.142;2023-10-31T09:23:10;3.05;;;1.00;;
79130;SDS011;72396;45.194;9.142;2023-10-31T09:25:35;2.35;;;0.95;;
79130;SDS011;72396;45.194;9.142;2023-10-31T09:28:01;1.98;;;0.88;;
79130;SDS011;72396;45.194;9.142;2023-10-31T09:30:27;2.50;;;1.00;;
79130;SDS011;72396;45.194;9.142;2023-10-31T09:32:52;2.38;;;1.02;;
79130;SDS011;72396;45.194;9.142;2023-10-31T09:35:17;2.70;;;1.25;;
79130;SDS011;72396;45.194;9.142;2023-10-31T09:37:43;1.92;;;0.93;;
79130;SDS011;72396;45.194;9.142;2023-10-31T09:40:08;1.98;;;0.90;;
79130;SDS011;72396;45.194;9.142;2023-10-31T09:42:35;2.10;;;0.98;;
79130;SDS011;72396;45.194;9.142;2023-10-31T09:45:01;3.47;;;1.42;;
79130;SDS011;72396;45.194;9.142;2023-10-31T09:47:27;3.25;;;1.00;;
79130;SDS011;72396;45.194;9.142;2023-10-31T09:49:52;3.85;;;0.95;;
79130;SDS011;72396;45.194;9.142;2023-10-31T09:52:17;2.53;;;0.88;;
79130;SDS011;72396;45.194;9.142;2023-10-31T09:54:45;1.42;;;0.70;;
79130;SDS011;72396;45.194;9.142;2023-10-31T09:57:12;2.05;;;1.00;;
79130;SDS011;72396;45.194;9.142;2023-10-31T09:59:39;3.05;;;1.10;;
79130;SDS011;72396;45.194;9.142;2023-10-31T10:02:04;1.67;;;0.80;;
79130;SDS011;72396;45.194;9.142;2023-10-31T10:04:30;2.30;;;1.10;;
79130;SDS011;72396;45.194;9.142;2023-10-31T10:07:02;2.72;;;0.90;;
79130;SDS011;72396;45.194;9.142;2023-10-31T10:09:28;2.30;;;0.82;;
79130;SDS011;72396;45.194;9.142;2023-10-31T10:11:54;3.45;;;1.00;;
79130;SDS011;72396;45.194;9.142;2023-10-31T10:14:23;1.38;;;0.80;;
79130;SDS011;72396;45.194;9.142;2023-10-31T10:16:49;2.10;;;0.90;;
79130;SDS011;72396;45.194;9.142;2023-10-31T10:22:02;1.45;;;0.80;;
79130;SDS011;72396;45.194;9.142;2023-10-31T10:24:27;2.33;;;0.90;;
79130;SDS011;72396;45.194;9.142;2023-10-31T10:26:53;1.67;;;0.75;;
79130;SDS011;72396;45.194;9.142;2023-10-31T10:29:18;1.80;;;0.90;;
79130;SDS011;72396;45.194;9.142;2023-10-31T10:31:44;1.80;;;0.77;;
79130;SDS011;72396;45.194;9.142;2023-10-31T10:34:15;1.60;;;0.88;;
79130;SDS011;72396;45.194;9.142;2023-10-31T10:36:41;1.75;;;0.90;;
79130;SDS011;72396;45.194;9.142;2023-10-31T10:39:21;4.88;;;0.95;;
79130;SDS011;72396;45.194;9.142;2023-10-31T10:41:51;1.75;;;0.90;;
79130;SDS011;72396;45.194;9.142;2023-10-31T10:44:20;2.10;;;1.00;;
79130;SDS011;72396;45.194;9.142;2023-10-31T10:47:04;2.00;;;0.80;;
79130;SDS011;72396;45.194;9.142;2023-10-31T10:49:34;1.92;;;0.98;;
79130;SDS011;72396;45.194;9.142;2023-10-31T10:52:06;2.03;;;0.90;;
79130;SDS011;72396;45.194;9.142;2023-10-31T10:54:44;3.17;;;1.05;;
79130;SDS011;72396;45.194;9.142;2023-10-31T10:57:15;1.50;;;0.82;;
79130;SDS011;72396;45.194;9.142;2023-10-31T10:59:49;2.88;;;1.00;;
79130;SDS011;72396;45.194;9.142;2023-10-31T11:02:19;4.07;;;0.82;;
79130;SDS011;72396;45.194;9.142;2023-10-31T11:04:45;2.50;;;0.90;;
79130;SDS011;72396;45.194;9.142;2023-10-31T11:07:11;3.58;;;0.98;;
79130;SDS011;72396;45.194;9.142;2023-10-31T11:09:37;2.00;;;1.20;;
79130;SDS011;72396;45.194;9.142;2023-10-31T11:12:03;2.90;;;0.90;;
79130;SDS011;72396;45.194;9.142;2023-10-31T11:14:30;3.58;;;1.15;;
79130;SDS011;72396;45.194;9.142;2023-10-31T11:16:58;2.08;;;0.95;;
79130;SDS011;72396;45.194;9.142;2023-10-31T11:19:28;1.83;;;1.00;;
79130;SDS011;72396;45.194;9.142;2023-10-31T11:21:54;2.40;;;1.08;;
79130;SDS011;72396;45.194;9.142;2023-10-31T11:24:25;2.28;;;1.00;;
79130;SDS011;72396;45.194;9.142;2023-10-31T11:26:59;2.65;;;1.00;;
79130;SDS011;72396;45.194;9.142;2023-10-31T11:29:26;2.40;;;0.90;;
79130;SDS011;72396;45.194;9.142;2023-10-31T11:31:53;2.72;;;1.50;;
79130;SDS011;72396;45.194;9.142;2023-10-31T11:34:19;1.85;;;0.90;;
79130;SDS011;72396;45.194;9.142;2023-10-31T11:36:45;2.28;;;0.80;;
79130;SDS011;72396;45.194;9.142;2023-10-31T11:39:15;4.00;;;0.90;;
79130;SDS011;72396;45.194;9.142;2023-10-31T11:41:49;3.03;;;1.00;;
79130;SDS011;72396;45.194;9.142;2023-10-31T11:44:15;3.58;;;0.95;;
79130;SDS011;72396;45.194;9.142;2023-10-31T11:46:41;5.50;;;1.10;;
79130;SDS011;72396;45.194;9.142;2023-10-31T11:49:06;3.45;;;1.10;;
79130;SDS011;72396;45.194;9.142;2023-10-31T11:51:32;2.75;;;0.90;;
79130;SDS011;72396;45.194;9.142;2023-10-31T11:53:59;2.28;;;1.02;;
79130;SDS011;72396;45.194;9.142;2023-10-31T11:56:26;2.40;;;1.10;;
79130;SDS011;72396;45.194;9.142;2023-10-31T11:58:55;2.00;;;1.05;;
79130;SDS011;72396;45.194;9.142;2023-10-31T12:01:28;5.28;;;1.10;;
79130;SDS011;72396;45.194;9.142;2023-10-31T12:03:53;6.90;;;1.38;;
79130;SDS011;72396;45.194;9.142;2023-10-31T12:06:19;3.38;;;1.17;;
79130;SDS011;72396;45.194;9.142;2023-10-31T12:08:46;3.42;;;1.00;;
79130;SDS011;72396;45.194;9.142;2023-10-31T12:11:14;6.70;;;0.90;;
79130;SDS011;72396;45.194;9.142;2023-10-31T12:16:31;2.33;;;0.98;;
79130;SDS011;72396;45.194;9.142;2023-10-31T12:18:59;2.65;;;1.00;;
79130;SDS011;72396;45.194;9.142;2023-10-31T12:24:03;2.72;;;1.13;;
79130;SDS011;72396;45.194;9.142;2023-10-31T12:26:32;2.00;;;0.80;;
79130;SDS011;72396;45.194;9.142;2023-10-31T12:29:32;2.78;;;1.10;;
79130;SDS011;72396;45.194;9.142;2023-10-31T12:31:52;2.38;;;1.02;;
79130;SDS011;72396;45.194;9.142;2023-10-31T12:34:22;2.15;;;1.13;;
79130;SDS011;72396;45.194;9.142;2023-10-31T12:36:52;3.92;;;1.10;;
79130;SDS011;72396;45.194;9.142;2023-10-31T12:39:22;3.78;;;1.33;;
79130;SDS011;72396;45.194;9.142;2023-10-31T12:41:51;2.70;;;1.02;;
79130;SDS011;72396;45.194;9.142;2023-10-31T12:44:17;1.90;;;0.82;;
79130;SDS011;72396;45.194;9.142;2023-10-31T12:46:48;1.58;;;0.88;;
79130;SDS011;72396;45.194;9.142;2023-10-31T12:49:17;1.45;;;0.90;;
79130;SDS011;72396;45.194;9.142;2023-10-31T12:51:59;2.60;;;1.10;;
79130;SDS011;72396;45.194;9.142;2023-10-31T12:54:36;6.13;;;1.10;;
79130;SDS011;72396;45.194;9.142;2023-10-31T12:59:29;1.63;;;1.40;;
79130;SDS011;72396;45.194;9.142;2023-10-31T13:01:55;2.58;;;1.05;;
79130;SDS011;72396;45.194;9.142;2023-10-31T13:04:26;3.10;;;0.90;;
79130;SDS011;72396;45.194;9.142;2023-10-31T13:06:56;3.75;;;1.20;;
79130;SDS011;72396;45.194;9.142;2023-10-31T13:09:23;2.75;;;1.02;;
79130;SDS011;72396;45.194;9.142;2023-10-31T13:11:48;3.05;;;1.48;;
79130;SDS011;72396;45.194;9.142;2023-10-31T13:14:14;1.95;;;0.98;;
79130;SDS011;72396;45.194;9.142;2023-10-31T13:16:39;1.77;;;0.88;;
79130;SDS011;72396;45.194;9.142;2023-10-31T13:19:04;2.45;;;0.80;;
79130;SDS011;72396;45.194;9.142;2023-10-31T13:21:30;2.95;;;0.90;;
79130;SDS011;72396;45.194;9.142;2023-10-31T13:23:55;2.92;;;0.70;;
79130;SDS011;72396;45.194;9.142;2023-10-31T13:26:20;3.10;;;0.90;;
79130;SDS011;72396;45.194;9.142;2023-10-31T13:28:46;3.30;;;1.10;;
79130;SDS011;72396;45.194;9.142;2023-10-31T13:31:11;1.83;;;0.85;;
79130;SDS011;72396;45.194;9.142;2023-10-31T13:33:37;2.60;;;1.00;;
79130;SDS011;72396;45.194;9.142;2023-10-31T13:36:03;2.00;;;0.90;;
79130;SDS011;72396;45.194;9.142;2023-10-31T13:38:29;2.00;;;0.88;;
79130;SDS011;72396;45.194;9.142;2023-10-31T13:40:54;2.38;;;0.80;;
79130;SDS011;72396;45.194;9.142;2023-10-31T13:43:20;1.30;;;0.75;;
79130;SDS011;72396;45.194;9.142;2023-10-31T13:45:45;1.98;;;0.90;;
79130;SDS011;72396;45.194;9.142;2023-10-31T13:48:11;2.92;;;0.90;;
79130;SDS011;72396;45.194;9.142;2023-10-31T13:50:38;1.33;;;0.70;;
79130;SDS011;72396;45.194;9.142;2023-10-31T13:53:03;2.47;;;0.90;;
79130;SDS011;72396;45.194;9.142;2023-10-31T13:55:31;1.30;;;0.80;;
79130;SDS011;72396;45.194;9.142;2023-10-31T13:57:56;2.38;;;1.17;;
79130;SDS011;72396;45.194;9.142;2023-10-31T14:00:21;3.25;;;1.00;;
79130;SDS011;72396;45.194;9.142;2023-10-31T14:02:47;2.13;;;1.10;;
79130;SDS011;72396;45.194;9.142;2023-10-31T14:05:12;2.20;;;0.80;;
79130;SDS011;72396;45.194;9.142;2023-10-31T14:07:38;1.13;;;0.70;;
79130;SDS011;72396;45.194;9.142;2023-10-31T14:10:04;2.30;;;1.00;;
79130;SDS011;72396;45.194;9.142;2023-10-31T14:12:29;1.70;;;0.80;;
79130;SDS011;72396;45.194;9.142;2023-10-31T14:14:54;1.70;;;0.80;;
79130;SDS011;72396;45.194;9.142;2023-10-31T14:17:20;1.63;;;0.90;;
79130;SDS011;72396;45.194;9.142;2023-10-31T14:19:47;1.65;;;0.70;;
79130;SDS011;72396;45.194;9.142;2023-10-31T14:22:13;1.63;;;0.80;;
79130;SDS011;72396;45.194;9.142;2023-10-31T14:24:39;1.95;;;1.02;;
79130;SDS011;72396;45.194;9.142;2023-10-31T14:27:04;2.10;;;0.90;;
79130;SDS011;72396;45.194;9.142;2023-10-31T14:29:30;2.47;;;0.90;;
79130;SDS011;72396;45.194;9.142;2023-10-31T14:31:55;2.53;;;0.90;;
79130;SDS011;72396;45.194;9.142;2023-10-31T14:34:22;1.83;;;0.80;;
79130;SDS011;72396;45.194;9.142;2023-10-31T14:36:47;1.60;;;0.70;;
79130;SDS011;72396;45.194;9.142;2023-10-31T14:39:13;1.42;;;0.80;;
79130;SDS011;72396;45.194;9.142;2023-10-31T14:41:39;3.10;;;1.00;;
79130;SDS011;72396;45.194;9.142;2023-10-31T14:44:05;1.88;;;0.90;;
79130;SDS011;72396;45.194;9.142;2023-10-31T14:46:30;1.58;;;0.90;;
79130;SDS011;72396;45.194;9.142;2023-10-31T14:48:57;2.38;;;0.80;;
79130;SDS011;72396;45.194;9.142;2023-10-31T14:51:22;1.60;;;0.77;;
79130;SDS011;72396;45.194;9.142;2023-10-31T14:53:48;1.55;;;0.85;;